createdAt,value
2022-08-11T00:00:37.699Z,2.88
2022-08-11T00:04:03.437Z,3.53
2022-08-11T00:07:06.985Z,3.30
2022-08-11T00:10:20.120Z,3.45
2022-08-11T00:13:23.432Z,3.40
2022-08-11T00:20:11.968Z,2.92
2022-08-11T00:22:52.746Z,2.72
2022-08-11T00:25:55.532Z,2.95
2022-08-11T00:29:07.851Z,3.60
2022-08-11T00:32:15.390Z,3.22
2022-08-11T00:35:51.316Z,3.00
2022-08-11T00:38:42.027Z,2.70
2022-08-11T00:42:01.675Z,2.42
2022-08-11T00:45:31.397Z,2.47
2022-08-11T00:49:00.822Z,2.67
2022-08-11T00:52:06.391Z,2.75
2022-08-11T00:55:37.910Z,2.35
2022-08-11T00:58:50.847Z,2.90
2022-08-11T01:02:30.694Z,3.15
2022-08-11T01:05:57.637Z,3.03
2022-08-11T01:09:22.337Z,2.47
2022-08-11T01:12:53.202Z,2.67
2022-08-11T01:16:13.370Z,3.03
2022-08-11T01:19:33.191Z,3.20
2022-08-11T01:23:23.040Z,3.20
2022-08-11T01:26:43.494Z,3.50
2022-08-11T01:30:07.236Z,3.35
2022-08-11T01:36:57.321Z,3.60
2022-08-11T01:40:17.789Z,3.50
2022-08-11T01:44:12.601Z,3.95
2022-08-11T01:47:53.675Z,3.50
2022-08-11T01:51:31.457Z,3.88
2022-08-11T01:55:03.287Z,3.90
2022-08-11T01:58:12.199Z,3.83
2022-08-11T02:01:32.823Z,4.00
2022-08-11T02:04:42.235Z,3.88
2022-08-11T02:08:18.935Z,3.97
2022-08-11T02:11:31.184Z,3.80
2022-08-11T02:15:04.933Z,3.90
2022-08-11T02:18:55.869Z,4.05
2022-08-11T02:22:56.094Z,4.03
2022-08-11T02:26:07.927Z,3.90
2022-08-11T02:29:34.445Z,3.72
2022-08-11T02:33:10.740Z,3.67
2022-08-11T02:36:33.194Z,3.92
2022-08-11T02:40:07.810Z,4.05
2022-08-11T02:43:24.583Z,3.90
2022-08-11T02:46:31.750Z,4.07
2022-08-11T02:50:02.662Z,4.15
2022-08-11T02:54:11.093Z,3.88
2022-08-11T02:57:29.126Z,4.13
2022-08-11T03:00:44.585Z,4.18
2022-08-11T03:03:59.829Z,4.53
2022-08-11T03:07:28.948Z,3.80
2022-08-11T03:10:40.472Z,4.00
2022-08-11T03:14:34.444Z,4.30
2022-08-11T03:18:18.833Z,4.47
2022-08-11T03:22:01.973Z,4.60
2022-08-11T03:25:08.725Z,4.55
2022-08-11T03:28:29.522Z,4.78
2022-08-11T03:31:57.964Z,4.50
2022-08-11T03:35:02.521Z,4.68
2022-08-11T03:38:14.845Z,4.82
2022-08-11T03:42:02.367Z,4.90
2022-08-11T03:45:30.934Z,4.72
2022-08-11T03:48:47.527Z,4.70
2022-08-11T03:52:01.136Z,4.68
2022-08-11T03:58:22.262Z,5.15
2022-08-11T04:01:34.903Z,4.43
2022-08-11T04:05:11.360Z,4.50
2022-08-11T04:08:34.139Z,4.53
2022-08-11T04:11:42.165Z,5.32
2022-08-11T04:15:26.720Z,5.05
2022-08-11T04:18:54.104Z,4.90
2022-08-11T04:22:13.811Z,4.35
2022-08-11T04:25:29.670Z,5.07
2022-08-11T04:28:50.997Z,5.15
2022-08-11T04:32:17.204Z,5.00
2022-08-11T04:35:51.337Z,4.90
2022-08-11T04:39:09.008Z,4.90
2022-08-11T04:43:00.167Z,5.18
2022-08-11T04:46:23.138Z,4.43
2022-08-11T04:50:10.779Z,5.77
2022-08-11T04:53:48.104Z,5.30
2022-08-11T04:57:21.121Z,5.45
2022-08-11T05:00:48.210Z,4.70
2022-08-11T05:04:33.947Z,4.78
2022-08-11T05:08:24.221Z,4.90
2022-08-11T05:12:01.756Z,5.60
2022-08-11T05:15:23.727Z,5.18
2022-08-11T05:18:47.669Z,5.40
2022-08-11T05:22:16.566Z,5.85
2022-08-11T05:26:43.644Z,6.20
2022-08-11T05:29:54.598Z,6.22
2022-08-11T05:33:31.511Z,7.00
2022-08-11T05:36:33.205Z,6.88
2022-08-11T05:40:03.578Z,6.90
2022-08-11T05:43:31.144Z,6.60
2022-08-11T05:47:00.242Z,6.72
2022-08-11T05:50:32.895Z,6.53
2022-08-11T05:53:53.772Z,6.15
2022-08-11T05:56:59.523Z,6.65
2022-08-11T06:00:05.585Z,5.95
2022-08-11T06:03:13.860Z,5.63
2022-08-11T06:06:16.360Z,6.78
2022-08-11T06:09:27.674Z,5.38
2022-08-11T06:12:37.445Z,5.53
2022-08-11T06:15:49.377Z,5.72
2022-08-11T06:18:52.222Z,5.63
2022-08-11T06:21:54.709Z,6.10
2022-08-11T06:24:59.148Z,7.77
2022-08-11T06:28:03.387Z,7.47
2022-08-11T06:31:21.111Z,5.93
2022-08-11T06:34:52.990Z,5.30
2022-08-11T06:38:22.779Z,5.78
2022-08-11T06:41:36.901Z,5.55
2022-08-11T06:44:52.293Z,4.97
2022-08-11T06:47:54.566Z,5.28
2022-08-11T06:51:12.585Z,4.80
2022-08-11T06:54:15.309Z,4.53
2022-08-11T06:57:38.142Z,5.40
2022-08-11T07:00:40.613Z,4.82
2022-08-11T07:03:48.669Z,5.50
2022-08-11T07:07:30.320Z,4.80
2022-08-11T07:11:22.849Z,4.22
2022-08-11T07:14:46.247Z,4.07
2022-08-11T07:18:12.092Z,4.47
2022-08-11T07:22:00.191Z,4.03
2022-08-11T07:25:27.096Z,3.67
2022-08-11T07:28:50.277Z,3.78
2022-08-11T07:31:54.296Z,4.68
2022-08-11T07:35:08.130Z,3.92
2022-08-11T07:38:43.519Z,3.80
2022-08-11T07:41:52.597Z,3.80
2022-08-11T07:45:15.304Z,3.83
2022-08-11T07:48:36.977Z,3.80
2022-08-11T07:51:58.924Z,4.38
2022-08-11T07:55:04.142Z,4.07
2022-08-11T07:58:25.017Z,4.35
2022-08-11T08:01:51.080Z,3.97
2022-08-11T08:05:12.028Z,3.22
2022-08-11T08:08:34.673Z,3.70
2022-08-11T08:11:55.237Z,3.92
2022-08-11T08:15:16.414Z,3.67
2022-08-11T08:18:26.472Z,3.45
2022-08-11T08:21:29.213Z,3.58
2022-08-11T08:24:33.410Z,3.77
2022-08-11T08:27:36.642Z,3.30
2022-08-11T08:30:48.027Z,3.30
2022-08-11T08:33:50.857Z,3.33
2022-08-11T08:36:52.784Z,2.95
2022-08-11T08:39:55.153Z,2.50
2022-08-11T08:43:03.666Z,2.80
2022-08-11T08:46:10.722Z,2.85
2022-08-11T08:49:22.105Z,2.67
2022-08-11T08:52:31.748Z,3.45
2022-08-11T08:55:36.449Z,3.25
2022-08-11T08:58:41.705Z,3.70
2022-08-11T09:02:00.881Z,3.67
2022-08-11T09:05:07.722Z,2.65
2022-08-11T09:08:10.515Z,3.30
2022-08-11T09:11:33.353Z,2.83
2022-08-11T09:14:56.477Z,3.10
2022-08-11T09:18:09.300Z,2.97
2022-08-11T09:21:15.640Z,3.40
2022-08-11T09:24:57.286Z,2.70
2022-08-11T09:27:59.325Z,2.70
2022-08-11T09:31:02.160Z,2.90
2022-08-11T09:34:03.961Z,3.10
2022-08-11T09:37:53.829Z,2.75
2022-08-11T09:40:52.814Z,2.90
2022-08-11T09:44:18.778Z,3.25
2022-08-11T09:47:28.134Z,2.92
2022-08-11T09:50:30.079Z,3.03
2022-08-11T09:57:12.861Z,2.90
2022-08-11T10:00:15.539Z,3.10
2022-08-11T10:03:24.413Z,3.17
2022-08-11T10:06:48.247Z,2.78
2022-08-11T10:10:06.548Z,2.90
2022-08-11T10:14:31.392Z,3.08
2022-08-11T10:16:39.687Z,2.70
2022-08-11T10:20:05.324Z,3.20
2022-08-11T10:23:28.703Z,2.67
2022-08-11T10:26:54.680Z,2.80
2022-08-11T10:30:15.696Z,2.85
2022-08-11T10:33:45.473Z,2.95
2022-08-11T10:37:03.076Z,2.47
2022-08-11T10:40:11.129Z,2.80
2022-08-11T10:44:01.391Z,2.60
2022-08-11T10:46:57.052Z,2.72
2022-08-11T10:50:18.332Z,3.20
2022-08-11T10:53:38.949Z,3.13
2022-08-11T10:57:00.543Z,3.00
2022-08-11T11:00:06.167Z,3.08
2022-08-11T11:03:22.818Z,2.90
2022-08-11T11:06:44.071Z,3.17
2022-08-11T11:09:53.455Z,2.83
2022-08-11T11:13:36.729Z,2.70
2022-08-11T11:16:59.345Z,2.90
2022-08-11T11:20:05.364Z,2.83
2022-08-11T11:23:21.811Z,2.40
2022-08-11T11:26:55.864Z,2.53
2022-08-11T11:30:11.678Z,2.47
2022-08-11T11:34:06.746Z,2.13
2022-08-11T11:37:17.041Z,2.72
2022-08-11T11:40:21.424Z,2.40
2022-08-11T11:43:33.337Z,2.30
2022-08-11T11:46:38.903Z,2.35
2022-08-11T11:49:44.213Z,2.70
2022-08-11T11:52:46.268Z,2.70
2022-08-11T11:56:01.903Z,2.58
2022-08-11T11:59:22.729Z,2.60
2022-08-11T12:02:30.948Z,2.53
2022-08-11T12:05:36.129Z,2.55
2022-08-11T12:08:38.671Z,2.72
2022-08-11T12:11:59.170Z,2.83
2022-08-11T12:15:01.674Z,2.30
2022-08-11T12:18:04.088Z,2.20
2022-08-11T12:21:07.511Z,2.50
2022-08-11T12:24:29.679Z,2.60
2022-08-11T12:27:32.060Z,2.50
2022-08-11T12:30:34.430Z,2.03
2022-08-11T12:33:39.527Z,2.80
2022-08-11T12:36:51.640Z,2.20
2022-08-11T12:40:42.784Z,2.60
2022-08-11T12:44:04.190Z,2.38
2022-08-11T12:47:06.340Z,2.22
2022-08-11T12:50:27.322Z,2.40
2022-08-11T12:53:32.190Z,2.95
2022-08-11T12:56:58.576Z,2.20
2022-08-11T13:00:19.766Z,2.28
2022-08-11T13:03:41.191Z,2.40
2022-08-11T13:06:43.507Z,2.25
2022-08-11T13:09:46.628Z,2.60
2022-08-11T13:15:52.089Z,2.10
2022-08-11T13:18:54.433Z,2.20
2022-08-11T13:21:57.690Z,2.40
2022-08-11T13:25:00.102Z,2.47
2022-08-11T13:28:03.179Z,2.05
2022-08-11T13:31:11.848Z,2.20
2022-08-11T13:34:15.209Z,2.35
2022-08-11T13:37:19.432Z,2.03
2022-08-11T13:40:55.283Z,2.13
2022-08-11T13:43:58.412Z,2.35
2022-08-11T13:47:06.363Z,2.05
2022-08-11T13:50:09.572Z,2.63
2022-08-11T13:53:17.403Z,2.63
2022-08-11T13:56:23.212Z,2.22
2022-08-11T13:59:30.891Z,2.22
2022-08-11T14:02:33.780Z,2.10
2022-08-11T14:05:47.999Z,2.42
2022-08-11T14:08:53.626Z,1.92
2022-08-11T14:12:24.348Z,2.80
2022-08-11T14:15:35.786Z,2.20
2022-08-11T14:18:43.442Z,2.35
2022-08-11T14:22:22.146Z,2.45
2022-08-11T14:25:59.537Z,2.60
2022-08-11T14:28:47.001Z,2.50
2022-08-11T14:37:56.996Z,2.15
2022-08-11T14:41:17.906Z,2.70
2022-08-11T14:44:38.665Z,2.60
2022-08-11T14:47:43.967Z,2.45
2022-08-11T14:50:46.843Z,2.55
2022-08-11T14:53:58.538Z,2.35
2022-08-11T14:57:03.220Z,2.65
2022-08-11T15:00:07.823Z,2.78
2022-08-11T15:03:13.163Z,2.80
2022-08-11T15:06:15.759Z,2.55
2022-08-11T15:09:18.359Z,2.70
2022-08-11T15:12:32.902Z,2.70
2022-08-11T15:15:54.664Z,2.80
2022-08-11T15:18:57.975Z,2.50
2022-08-11T15:22:18.407Z,2.35
2022-08-11T15:25:20.931Z,2.90
2022-08-11T15:28:43.435Z,2.40
2022-08-11T15:32:03.968Z,2.45
2022-08-11T15:35:25.950Z,2.53
2022-08-11T15:38:40.010Z,2.53
2022-08-11T15:42:09.765Z,2.67
2022-08-11T15:45:32.590Z,2.30
2022-08-11T15:48:34.917Z,2.58
2022-08-11T15:51:41.084Z,2.50
2022-08-11T15:54:46.711Z,2.47
2022-08-11T15:58:10.122Z,2.47
2022-08-11T16:01:33.299Z,2.85
2022-08-11T16:04:37.035Z,2.63
2022-08-11T16:07:41.247Z,2.53
2022-08-11T16:10:44.944Z,2.42
2022-08-11T16:13:48.149Z,2.40
2022-08-11T16:19:55.347Z,2.47
2022-08-11T16:23:04.784Z,2.80
2022-08-11T16:27:10.741Z,2.60
2022-08-11T16:29:32.201Z,2.63
2022-08-11T16:32:36.555Z,2.88
2022-08-11T16:35:59.321Z,2.55
2022-08-11T16:39:03.410Z,2.50
2022-08-11T16:43:08.792Z,2.35
2022-08-11T16:46:06.416Z,2.70
2022-08-11T16:49:13.569Z,2.50
2022-08-11T16:52:16.885Z,2.40
2022-08-11T16:55:51.462Z,2.40
2022-08-11T16:59:01.917Z,2.55
2022-08-11T17:02:09.734Z,2.55
2022-08-11T17:05:34.172Z,2.40
2022-08-11T17:09:11.566Z,2.60
2022-08-11T17:12:32.993Z,2.70
2022-08-11T17:16:04.230Z,2.55
2022-08-11T17:19:11.614Z,2.60
2022-08-11T17:22:31.902Z,2.47
2022-08-11T17:25:58.704Z,2.50
2022-08-11T17:29:01.986Z,2.70
2022-08-11T17:32:29.707Z,3.00
2022-08-11T17:35:51.593Z,3.05
2022-08-11T17:38:53.699Z,2.60
2022-08-11T17:42:15.085Z,3.05
2022-08-11T17:45:37.859Z,2.47
2022-08-11T17:48:47.746Z,2.87
2022-08-11T17:52:10.004Z,2.95
2022-08-11T17:55:51.715Z,2.95
2022-08-11T17:59:13.595Z,2.88
2022-08-11T18:02:36.399Z,2.78
2022-08-11T18:05:43.667Z,2.83
2022-08-11T18:09:05.872Z,3.00
2022-08-11T18:12:27.947Z,3.38
2022-08-11T18:15:55.584Z,3.35
2022-08-11T18:19:16.912Z,3.28
2022-08-11T18:22:50.169Z,3.30
2022-08-11T18:26:13.688Z,3.33
2022-08-11T18:33:44.916Z,3.40
2022-08-11T18:36:47.735Z,3.20
2022-08-11T18:40:31.387Z,3.08
2022-08-11T18:43:55.745Z,3.38
2022-08-11T18:47:20.446Z,3.10
2022-08-11T18:50:46.454Z,3.10
2022-08-11T18:54:18.489Z,3.55
2022-08-11T18:57:47.047Z,3.17
2022-08-11T19:01:15.265Z,2.90
2022-08-11T19:04:37.885Z,3.30
2022-08-11T19:08:01.768Z,3.10
2022-08-11T19:14:44.589Z,3.50
2022-08-11T19:18:06.236Z,3.03
2022-08-11T19:21:28.317Z,3.40
2022-08-11T19:24:50.293Z,3.60
2022-08-11T19:28:12.655Z,3.58
2022-08-11T19:31:33.407Z,3.33
2022-08-11T19:34:54.973Z,3.55
2022-08-11T19:38:17.335Z,3.60
2022-08-11T19:41:52.003Z,3.75
2022-08-11T19:45:20.652Z,3.08
2022-08-11T19:48:42.706Z,3.60
2022-08-11T19:52:03.824Z,3.78
2022-08-11T19:55:26.665Z,3.70
2022-08-11T19:58:47.723Z,3.53
2022-08-11T20:02:13.441Z,3.83
2022-08-11T20:05:34.742Z,3.63
2022-08-11T20:08:59.153Z,3.80
2022-08-11T20:12:23.210Z,3.25
2022-08-11T20:15:45.915Z,3.40
2022-08-11T20:19:08.132Z,3.83
2022-08-11T20:22:30.050Z,3.65
2022-08-11T20:25:55.832Z,3.63
2022-08-11T20:29:26.077Z,3.47
2022-08-11T20:32:47.054Z,4.05
2022-08-11T20:36:08.479Z,3.97
2022-08-11T20:39:29.850Z,3.75
2022-08-11T20:42:52.005Z,3.83
2022-08-11T20:46:13.155Z,3.80
2022-08-11T20:49:45.341Z,3.63
2022-08-11T20:53:15.570Z,3.70
2022-08-11T20:56:39.195Z,4.03
2022-08-11T21:00:02.427Z,3.40
2022-08-11T21:03:35.653Z,3.58
2022-08-11T21:07:04.702Z,4.40
2022-08-11T21:10:28.819Z,3.65
2022-08-11T21:13:55.502Z,4.03
2022-08-11T21:17:26.953Z,4.35
2022-08-11T21:20:50.621Z,4.10
2022-08-11T21:24:12.693Z,4.65
2022-08-11T21:27:38.577Z,4.68
2022-08-11T21:30:59.550Z,4.40
2022-08-11T21:34:21.366Z,4.10
2022-08-11T21:37:43.635Z,4.40
2022-08-11T21:41:06.871Z,3.65
2022-08-11T21:44:27.560Z,3.70
2022-08-11T21:47:49.563Z,3.90
2022-08-11T21:51:21.241Z,4.20
2022-08-11T21:54:43.928Z,4.20
2022-08-11T21:58:06.397Z,4.38
2022-08-11T22:01:28.120Z,4.40
2022-08-11T22:04:54.995Z,4.43
2022-08-11T22:08:15.808Z,3.95
2022-08-11T22:11:36.465Z,4.13
2022-08-11T22:14:57.077Z,3.85
2022-08-11T22:18:20.016Z,4.28
2022-08-11T22:22:02.635Z,4.50
2022-08-11T22:25:22.538Z,4.28
2022-08-11T22:28:43.655Z,4.90
2022-08-11T22:32:04.227Z,4.88
2022-08-11T22:35:28.612Z,4.70
2022-08-11T22:38:52.095Z,4.90
2022-08-11T22:42:12.321Z,4.85
2022-08-11T22:45:32.985Z,4.63
2022-08-11T22:48:55.318Z,4.75
2022-08-11T22:52:17.410Z,4.95
2022-08-11T22:55:39.146Z,4.75
2022-08-11T22:59:00.652Z,5.25
2022-08-11T23:02:23.400Z,5.32
2022-08-11T23:05:44.552Z,5.63
2022-08-11T23:09:05.979Z,5.95
2022-08-11T23:12:26.801Z,5.75
2022-08-11T23:15:48.458Z,6.00
2022-08-11T23:19:09.443Z,6.65
2022-08-11T23:22:37.762Z,6.43
2022-08-11T23:26:11.240Z,6.13
2022-08-11T23:29:33.380Z,5.70
2022-08-11T23:32:55.726Z,6.47
2022-08-11T23:36:36.244Z,6.10
2022-08-11T23:39:56.253Z,5.72
2022-08-11T23:43:17.274Z,6.43
2022-08-11T23:46:39.554Z,6.20
2022-08-11T23:50:01.583Z,6.93
2022-08-11T23:53:22.104Z,6.80
2022-08-11T23:56:43.338Z,6.50
